createdAt,value
2022-12-31T00:00:40.165Z,3.30
2022-12-31T00:03:26.369Z,3.31
2022-12-31T00:05:54.317Z,3.33
2022-12-31T00:08:22.248Z,3.35
2022-12-31T00:10:50.214Z,3.37
2022-12-31T00:13:18.021Z,3.40
2022-12-31T00:15:45.805Z,3.42
2022-12-31T00:18:13.636Z,3.45
2022-12-31T00:20:41.924Z,3.47
2022-12-31T00:23:11.499Z,3.49
2022-12-31T00:25:39.379Z,3.51
2022-12-31T00:28:07.289Z,3.52
2022-12-31T00:30:35.122Z,3.54
2022-12-31T00:33:02.842Z,3.55
2022-12-31T00:35:30.707Z,3.56
2022-12-31T00:37:58.368Z,3.57
2022-12-31T00:40:26.126Z,3.57
2022-12-31T00:42:53.778Z,3.57
2022-12-31T00:45:21.435Z,3.57
2022-12-31T00:47:49.139Z,3.57
2022-12-31T00:50:16.900Z,3.56
2022-12-31T00:52:44.600Z,3.56
2022-12-31T00:55:12.322Z,3.55
2022-12-31T00:57:39.987Z,3.56
2022-12-31T01:00:09.070Z,3.58
2022-12-31T01:02:37.055Z,3.59
2022-12-31T01:05:05.938Z,3.59
2022-12-31T01:07:33.619Z,3.61
2022-12-31T01:10:01.282Z,3.62
2022-12-31T01:12:28.953Z,3.63
2022-12-31T01:14:56.609Z,3.64
2022-12-31T01:17:24.366Z,3.64
2022-12-31T01:19:52.058Z,3.65
2022-12-31T01:22:19.773Z,3.65
2022-12-31T01:24:47.445Z,3.65
2022-12-31T01:27:15.095Z,3.66
2022-12-31T01:29:42.788Z,3.68
2022-12-31T01:32:10.473Z,3.69
2022-12-31T01:34:38.140Z,3.70
2022-12-31T01:37:05.810Z,3.71
2022-12-31T01:39:33.440Z,3.72
2022-12-31T01:42:01.136Z,3.73
2022-12-31T01:44:28.798Z,3.74
2022-12-31T01:46:59.276Z,3.76
2022-12-31T01:49:44.710Z,3.78
2022-12-31T01:52:30.848Z,3.81
2022-12-31T01:55:06.129Z,3.84
2022-12-31T01:57:35.563Z,3.87
2022-12-31T02:00:05.922Z,3.90
2022-12-31T02:02:33.738Z,3.93
2022-12-31T02:05:05.591Z,3.96
2022-12-31T02:07:33.279Z,4.01
2022-12-31T02:10:01.671Z,4.05
2022-12-31T02:12:29.478Z,4.10
2022-12-31T02:14:57.583Z,4.15
2022-12-31T02:17:48.095Z,4.20
2022-12-31T02:20:31.829Z,4.26
2022-12-31T02:23:18.097Z,4.32
2022-12-31T02:25:54.583Z,4.37
2022-12-31T02:28:54.171Z,4.40
2022-12-31T02:31:25.419Z,4.44
2022-12-31T02:34:01.071Z,4.48
2022-12-31T02:36:34.702Z,4.54
2022-12-31T02:39:06.008Z,4.58
2022-12-31T02:41:49.714Z,4.62
2022-12-31T02:44:30.320Z,4.67
2022-12-31T02:47:16.834Z,4.72
2022-12-31T02:50:13.455Z,4.75
2022-12-31T02:53:00.972Z,4.78
2022-12-31T02:55:52.516Z,4.81
2022-12-31T02:58:52.667Z,4.83
2022-12-31T03:01:42.478Z,4.87
2022-12-31T03:04:28.136Z,4.89
2022-12-31T03:06:56.033Z,4.93
2022-12-31T03:09:23.830Z,4.94
2022-12-31T03:12:06.600Z,4.96
2022-12-31T03:14:34.243Z,4.98
2022-12-31T03:17:01.902Z,4.99
2022-12-31T03:19:44.491Z,5.01
2022-12-31T03:22:31.340Z,5.04
2022-12-31T03:25:18.688Z,5.06
2022-12-31T03:27:47.557Z,5.09
2022-12-31T03:30:17.674Z,5.11
2022-12-31T03:32:47.198Z,5.13
2022-12-31T03:35:16.624Z,5.15
2022-12-31T03:37:44.287Z,5.17
2022-12-31T03:40:14.240Z,5.20
2022-12-31T03:42:42.744Z,5.22
2022-12-31T03:45:11.876Z,5.24
2022-12-31T03:47:40.215Z,5.26
2022-12-31T03:50:10.020Z,5.29
2022-12-31T03:52:38.226Z,5.33
2022-12-31T03:55:07.073Z,5.35
2022-12-31T03:57:35.062Z,5.37
2022-12-31T04:00:03.708Z,5.39
2022-12-31T04:02:31.621Z,5.41
2022-12-31T04:04:59.393Z,5.42
2022-12-31T04:07:27.063Z,5.43
2022-12-31T04:09:54.762Z,5.43
2022-12-31T04:12:22.462Z,5.43
2022-12-31T04:14:50.201Z,5.45
2022-12-31T04:17:17.884Z,5.44
2022-12-31T04:19:45.708Z,5.43
2022-12-31T04:22:13.443Z,5.41
2022-12-31T04:24:42.341Z,5.38
2022-12-31T04:27:11.553Z,5.34
2022-12-31T04:29:39.503Z,5.31
2022-12-31T04:32:08.646Z,5.27
2022-12-31T04:34:36.501Z,5.24
2022-12-31T04:37:04.484Z,5.22
2022-12-31T04:39:32.309Z,5.20
2022-12-31T04:42:00.053Z,5.17
2022-12-31T04:44:27.758Z,5.16
2022-12-31T04:46:55.446Z,5.15
2022-12-31T04:49:23.113Z,5.15
2022-12-31T04:51:50.778Z,5.18
2022-12-31T04:54:18.661Z,5.19
2022-12-31T04:56:46.283Z,5.19
2022-12-31T04:59:13.951Z,5.20
2022-12-31T05:01:41.818Z,5.22
2022-12-31T05:04:09.678Z,5.23
2022-12-31T05:06:37.337Z,5.24
2022-12-31T05:09:05.031Z,5.26
2022-12-31T05:11:32.845Z,5.28
2022-12-31T05:14:00.485Z,5.29
2022-12-31T05:16:28.170Z,5.32
2022-12-31T05:18:55.820Z,5.35
2022-12-31T05:21:23.553Z,5.37
2022-12-31T05:23:51.265Z,5.39
2022-12-31T05:26:18.913Z,5.42
2022-12-31T05:28:46.551Z,5.43
2022-12-31T05:31:14.294Z,5.45
2022-12-31T05:33:41.965Z,5.47
2022-12-31T05:36:09.774Z,5.49
2022-12-31T05:38:38.190Z,5.52
2022-12-31T05:41:07.805Z,5.54
2022-12-31T05:43:35.549Z,5.56
2022-12-31T05:46:04.862Z,5.58
2022-12-31T05:48:32.955Z,5.60
2022-12-31T05:51:00.850Z,5.62
2022-12-31T05:53:28.699Z,5.64
2022-12-31T05:55:56.373Z,5.66
2022-12-31T05:58:24.046Z,5.68
2022-12-31T06:00:52.404Z,5.69
2022-12-31T06:03:20.247Z,5.72
2022-12-31T06:05:48.037Z,5.73
2022-12-31T06:08:15.747Z,5.76
2022-12-31T06:10:43.453Z,5.78
2022-12-31T06:13:11.147Z,5.81
2022-12-31T06:15:40.293Z,5.82
2022-12-31T06:18:08.123Z,5.85
2022-12-31T06:20:39.088Z,5.86
2022-12-31T06:23:06.757Z,5.87
2022-12-31T06:25:36.925Z,5.89
2022-12-31T06:28:05.586Z,5.90
2022-12-31T06:30:33.806Z,5.92
2022-12-31T06:33:01.473Z,5.95
2022-12-31T06:35:29.132Z,5.97
2022-12-31T06:37:56.957Z,5.99
2022-12-31T06:40:24.727Z,6.00
2022-12-31T06:42:59.685Z,6.01
2022-12-31T06:45:28.239Z,6.03
2022-12-31T06:47:56.005Z,6.05
2022-12-31T06:50:23.679Z,6.07
2022-12-31T06:52:51.336Z,6.10
2022-12-31T06:55:19.455Z,6.12
2022-12-31T06:57:47.379Z,6.15
2022-12-31T07:00:15.609Z,6.18
2022-12-31T07:03:06.534Z,6.21
2022-12-31T07:05:57.188Z,6.25
2022-12-31T07:08:37.310Z,6.28
2022-12-31T07:11:17.270Z,6.31
2022-12-31T07:13:47.999Z,6.35
2022-12-31T07:16:40.294Z,6.39
2022-12-31T07:19:17.086Z,6.44
2022-12-31T07:21:45.041Z,6.49
2022-12-31T07:24:13.213Z,6.53
2022-12-31T07:26:56.800Z,6.57
2022-12-31T07:29:27.417Z,6.63
2022-12-31T07:32:18.506Z,6.67
2022-12-31T07:35:02.131Z,6.73
2022-12-31T07:37:59.617Z,6.78
2022-12-31T07:40:34.632Z,6.83
2022-12-31T07:43:39.445Z,6.87
2022-12-31T07:46:26.203Z,6.93
2022-12-31T07:48:54.845Z,6.97
2022-12-31T07:51:22.863Z,7.02
2022-12-31T07:53:50.516Z,7.06
2022-12-31T07:56:18.332Z,7.11
2022-12-31T07:59:23.919Z,7.14
2022-12-31T08:02:11.937Z,7.20
2022-12-31T08:04:55.861Z,7.26
2022-12-31T08:07:23.539Z,7.30
2022-12-31T08:10:23.009Z,7.34
2022-12-31T08:12:54.469Z,7.39
2022-12-31T08:15:28.447Z,7.42
2022-12-31T08:17:58.117Z,7.46
2022-12-31T08:20:26.984Z,7.50
2022-12-31T08:23:14.687Z,7.54
2022-12-31T08:25:51.487Z,7.58
2022-12-31T08:28:37.913Z,7.63
2022-12-31T08:31:11.234Z,7.69
2022-12-31T08:34:15.408Z,7.73
2022-12-31T08:36:46.183Z,7.77
2022-12-31T08:39:23.426Z,7.80
2022-12-31T08:41:55.063Z,7.83
2022-12-31T08:44:36.344Z,7.85
2022-12-31T08:47:38.388Z,7.89
2022-12-31T08:50:13.019Z,7.93
2022-12-31T08:52:40.984Z,7.97
2022-12-31T08:55:13.767Z,8.01
2022-12-31T08:58:07.235Z,8.06
2022-12-31T09:00:37.850Z,8.14
2022-12-31T09:03:31.640Z,8.22
2022-12-31T09:06:18.237Z,8.30
2022-12-31T09:09:06.608Z,8.39
2022-12-31T09:12:00.546Z,8.49
2022-12-31T09:14:50.327Z,8.54
2022-12-31T09:17:33.869Z,8.57
2022-12-31T09:20:02.015Z,8.58
2022-12-31T09:22:30.180Z,8.58
2022-12-31T09:24:58.287Z,8.57
2022-12-31T09:27:40.718Z,8.56
2022-12-31T09:30:15.687Z,8.55
2022-12-31T09:33:01.427Z,8.56
2022-12-31T09:35:52.635Z,8.56
2022-12-31T09:38:52.523Z,8.58
2022-12-31T09:41:52.022Z,8.59
2022-12-31T09:44:38.742Z,8.58
2022-12-31T09:47:28.217Z,8.58
2022-12-31T09:50:35.094Z,8.60
2022-12-31T09:53:08.771Z,8.62
2022-12-31T09:55:52.428Z,8.65
2022-12-31T09:59:01.885Z,8.69
2022-12-31T10:01:40.160Z,8.73
2022-12-31T10:04:23.458Z,8.75
2022-12-31T10:07:23.297Z,8.78
2022-12-31T10:10:14.988Z,8.81
2022-12-31T10:12:57.677Z,8.84
2022-12-31T10:15:47.405Z,8.85
2022-12-31T10:18:33.875Z,8.87
2022-12-31T10:21:06.623Z,8.88
2022-12-31T10:23:50.208Z,8.89
2022-12-31T10:26:53.436Z,8.92
2022-12-31T10:29:24.226Z,8.96
2022-12-31T10:32:16.205Z,8.98
2022-12-31T10:35:15.812Z,9.00
2022-12-31T10:38:19.638Z,9.01
2022-12-31T10:41:09.140Z,9.00
2022-12-31T10:44:07.784Z,9.00
2022-12-31T10:46:51.337Z,9.01
2022-12-31T10:49:35.143Z,9.02
2022-12-31T10:52:18.794Z,9.02
2022-12-31T10:55:02.644Z,9.02
2022-12-31T10:57:42.279Z,9.03
2022-12-31T11:00:17.060Z,9.04
2022-12-31T11:03:06.819Z,9.07
2022-12-31T11:05:56.569Z,9.08
2022-12-31T11:08:46.351Z,9.05
2022-12-31T11:11:28.599Z,9.00
2022-12-31T11:14:23.613Z,8.94
2022-12-31T11:17:23.196Z,8.87
2022-12-31T11:20:23.759Z,8.81
2022-12-31T11:23:14.820Z,8.77
2022-12-31T11:26:15.661Z,8.73
2022-12-31T11:28:50.265Z,8.69
2022-12-31T11:31:40.933Z,8.67
2022-12-31T11:34:31.641Z,8.66
2022-12-31T11:37:31.598Z,8.70
2022-12-31T11:40:37.050Z,8.75
2022-12-31T11:43:42.015Z,8.80
2022-12-31T11:46:40.385Z,8.85
2022-12-31T11:49:10.905Z,8.87
2022-12-31T11:51:54.944Z,8.90
2022-12-31T11:54:54.495Z,8.91
2022-12-31T11:57:40.294Z,8.93
2022-12-31T12:00:25.400Z,8.95
2022-12-31T12:03:05.706Z,8.99
2022-12-31T12:05:35.647Z,9.03
2022-12-31T12:08:03.676Z,9.08
2022-12-31T12:10:40.887Z,9.12
2022-12-31T12:13:27.011Z,9.18
2022-12-31T12:15:59.485Z,9.23
2022-12-31T12:18:43.780Z,9.26
2022-12-31T12:21:14.790Z,9.30
2022-12-31T12:23:58.492Z,9.34
2022-12-31T12:26:42.189Z,9.38
2022-12-31T12:29:31.414Z,9.41
2022-12-31T12:32:16.681Z,9.45
2022-12-31T12:34:49.860Z,9.49
2022-12-31T12:37:37.458Z,9.53
2022-12-31T12:40:33.434Z,9.58
2022-12-31T12:43:03.039Z,9.65
2022-12-31T12:46:05.756Z,9.73
2022-12-31T12:48:44.196Z,9.82
2022-12-31T12:51:39.191Z,9.89
2022-12-31T12:54:28.716Z,9.96
2022-12-31T12:57:15.526Z,10.01
2022-12-31T12:59:59.295Z,10.04
2022-12-31T13:02:59.068Z,10.08
2022-12-31T13:06:05.711Z,10.13
2022-12-31T13:08:52.655Z,10.17
2022-12-31T13:11:34.283Z,10.20
2022-12-31T13:14:04.907Z,10.24
2022-12-31T13:16:43.971Z,10.26
2022-12-31T13:19:22.489Z,10.29
2022-12-31T13:22:11.790Z,10.31
2022-12-31T13:25:11.304Z,10.33
2022-12-31T13:27:50.533Z,10.36
2022-12-31T13:30:25.489Z,10.37
2022-12-31T13:32:57.497Z,10.39
2022-12-31T13:35:46.770Z,10.39
2022-12-31T13:38:14.692Z,10.40
2022-12-31T13:40:45.647Z,10.41
2022-12-31T13:43:18.262Z,10.40
2022-12-31T13:45:51.843Z,10.41
2022-12-31T13:48:24.981Z,10.40
2022-12-31T13:51:01.761Z,10.40
2022-12-31T13:53:40.087Z,10.41
2022-12-31T13:56:20.053Z,10.42
2022-12-31T13:59:03.831Z,10.44
2022-12-31T14:01:59.526Z,10.47
2022-12-31T14:04:47.575Z,10.50
2022-12-31T14:07:23.118Z,10.51
2022-12-31T14:09:51.201Z,10.53
2022-12-31T14:12:51.268Z,10.54
2022-12-31T14:15:40.857Z,10.57
2022-12-31T14:18:27.773Z,10.59
2022-12-31T14:21:07.348Z,10.61
2022-12-31T14:24:07.170Z,10.64
2022-12-31T14:26:50.163Z,10.70
2022-12-31T14:29:29.348Z,10.75
2022-12-31T14:32:03.280Z,10.82
2022-12-31T14:34:50.516Z,10.87
2022-12-31T14:37:34.413Z,10.94
2022-12-31T14:40:18.644Z,11.01
2022-12-31T14:42:55.539Z,11.08
2022-12-31T14:45:55.717Z,11.14
2022-12-31T14:48:44.757Z,11.19
2022-12-31T14:51:13.614Z,11.24
2022-12-31T14:53:52.621Z,11.29
2022-12-31T14:56:33.012Z,11.36
2022-12-31T14:59:02.319Z,11.43
2022-12-31T15:01:30.256Z,11.49
2022-12-31T15:03:58.537Z,11.55
2022-12-31T15:06:34.181Z,11.60
2022-12-31T15:09:17.843Z,11.66
2022-12-31T15:12:18.335Z,11.71
2022-12-31T15:15:17.940Z,11.77
2022-12-31T15:18:08.783Z,11.81
2022-12-31T15:20:52.480Z,11.85
2022-12-31T15:23:35.904Z,11.90
2022-12-31T15:26:05.884Z,11.95
2022-12-31T15:28:39.612Z,11.98
2022-12-31T15:31:18.197Z,12.02
2022-12-31T15:34:07.931Z,12.05
2022-12-31T15:36:39.134Z,12.05
2022-12-31T15:39:09.997Z,12.06
2022-12-31T15:42:36.172Z,12.08
2022-12-31T15:45:00.942Z,12.08
2022-12-31T15:47:40.174Z,12.09
2022-12-31T15:50:15.204Z,12.11
2022-12-31T15:52:48.015Z,12.14
2022-12-31T15:55:41.658Z,12.19
2022-12-31T15:58:18.603Z,12.21
2022-12-31T16:01:10.203Z,12.23
2022-12-31T16:03:44.177Z,12.24
2022-12-31T16:06:14.980Z,12.25
2022-12-31T16:08:48.822Z,12.27
2022-12-31T16:11:17.749Z,12.28
2022-12-31T16:13:50.272Z,12.31
2022-12-31T16:16:34.430Z,12.34
2022-12-31T16:19:02.440Z,12.37
2022-12-31T16:21:36.300Z,12.37
2022-12-31T16:24:07.044Z,12.39
2022-12-31T16:26:56.304Z,12.40
2022-12-31T16:29:24.875Z,12.42
2022-12-31T16:31:53.749Z,12.42
2022-12-31T16:34:24.312Z,12.41
2022-12-31T16:37:04.473Z,12.43
2022-12-31T16:39:36.595Z,12.44
2022-12-31T16:42:14.357Z,12.46
2022-12-31T16:44:42.198Z,12.47
2022-12-31T16:47:22.807Z,12.47
2022-12-31T16:50:04.186Z,12.48
2022-12-31T16:52:38.271Z,12.49
2022-12-31T16:55:23.251Z,12.50
2022-12-31T16:57:55.781Z,12.49
2022-12-31T17:00:25.390Z,12.48
2022-12-31T17:03:03.690Z,12.47
2022-12-31T17:05:35.307Z,12.47
2022-12-31T17:08:24.294Z,12.46
2022-12-31T17:10:53.025Z,12.45
2022-12-31T17:13:28.622Z,12.45
2022-12-31T17:15:59.219Z,12.46
2022-12-31T17:18:36.097Z,12.48
2022-12-31T17:21:08.818Z,12.49
2022-12-31T17:23:39.941Z,12.48
2022-12-31T17:26:22.107Z,12.48
2022-12-31T17:28:52.431Z,12.50
2022-12-31T17:31:30.702Z,12.51
2022-12-31T17:34:45.258Z,12.53
2022-12-31T17:37:19.241Z,12.55
2022-12-31T17:39:52.026Z,12.57
2022-12-31T17:42:46.206Z,12.60
2022-12-31T17:45:22.369Z,12.63
2022-12-31T17:47:53.750Z,12.66
2022-12-31T17:50:24.404Z,12.69
2022-12-31T17:53:13.340Z,12.71
2022-12-31T17:55:48.137Z,12.73
2022-12-31T17:58:36.484Z,12.74
2022-12-31T18:01:08.983Z,12.76
2022-12-31T18:03:36.893Z,12.79
2022-12-31T18:06:05.486Z,12.80
2022-12-31T18:08:33.233Z,12.81
2022-12-31T18:11:01.103Z,12.79
2022-12-31T18:13:29.231Z,12.79
2022-12-31T18:15:57.082Z,12.77
2022-12-31T18:18:28.177Z,12.76
2022-12-31T18:21:02.014Z,12.75
2022-12-31T18:23:41.517Z,12.74
2022-12-31T18:26:21.589Z,12.71
2022-12-31T18:28:50.172Z,12.69
2022-12-31T18:31:20.149Z,12.70
2022-12-31T18:33:49.319Z,12.71
2022-12-31T18:36:19.639Z,12.72
2022-12-31T18:38:47.768Z,12.71
2022-12-31T18:41:22.822Z,12.69
2022-12-31T18:43:51.178Z,12.68
2022-12-31T18:46:22.547Z,12.67
2022-12-31T18:48:50.404Z,12.65
2022-12-31T18:51:25.134Z,12.62
2022-12-31T18:53:57.398Z,12.58
2022-12-31T18:56:25.216Z,12.54
2022-12-31T18:58:52.986Z,12.51
2022-12-31T19:01:29.733Z,12.47
2022-12-31T19:04:12.566Z,12.43
2022-12-31T19:06:42.899Z,12.42
2022-12-31T19:09:30.809Z,12.40
2022-12-31T19:12:00.652Z,12.38
2022-12-31T19:14:28.811Z,12.35
2022-12-31T19:19:26.474Z,12.31
2022-12-31T19:21:54.357Z,12.30
2022-12-31T19:24:26.769Z,12.28
2022-12-31T19:26:55.039Z,12.26
2022-12-31T19:29:25.813Z,12.25
2022-12-31T19:31:54.357Z,12.23
2022-12-31T19:34:22.380Z,12.21
2022-12-31T19:36:50.091Z,12.18
2022-12-31T19:39:20.848Z,12.16
2022-12-31T19:41:54.684Z,12.15
2022-12-31T19:44:26.251Z,12.12
2022-12-31T19:46:54.066Z,12.10
2022-12-31T19:52:58.183Z,12.05
2022-12-31T19:55:26.407Z,12.03
2022-12-31T19:57:54.320Z,12.01
2022-12-31T20:00:22.306Z,11.97
2022-12-31T20:02:50.415Z,11.94
2022-12-31T20:05:19.591Z,11.93
2022-12-31T20:07:47.420Z,11.91
2022-12-31T20:10:15.228Z,11.88
2022-12-31T20:12:44.812Z,11.86
2022-12-31T20:15:12.851Z,11.84
2022-12-31T20:17:40.810Z,11.82
2022-12-31T20:20:08.805Z,11.81
2022-12-31T20:22:36.663Z,11.80
2022-12-31T20:25:05.029Z,11.83
2022-12-31T20:27:33.586Z,11.86
2022-12-31T20:30:01.374Z,11.90
2022-12-31T20:32:29.265Z,11.94
2022-12-31T20:34:57.063Z,11.98
2022-12-31T20:37:24.946Z,12.02
2022-12-31T20:39:53.114Z,12.03
2022-12-31T20:42:21.057Z,12.05
2022-12-31T20:44:48.846Z,12.07
2022-12-31T20:47:16.816Z,12.10
2022-12-31T20:50:10.497Z,12.11
2022-12-31T20:52:32.356Z,12.13
2022-12-31T20:55:00.122Z,12.15
2022-12-31T20:57:33.284Z,12.16
2022-12-31T21:00:02.718Z,12.17
2022-12-31T21:02:41.704Z,12.18
2022-12-31T21:05:16.931Z,12.19
2022-12-31T21:07:45.194Z,12.21
2022-12-31T21:10:15.155Z,12.22
2022-12-31T21:12:43.461Z,12.24
2022-12-31T21:15:13.038Z,12.27
2022-12-31T21:17:41.058Z,12.31
2022-12-31T21:20:09.633Z,12.35
2022-12-31T21:22:37.460Z,12.38
2022-12-31T21:25:05.919Z,12.40
2022-12-31T21:27:35.920Z,12.41
2022-12-31T21:30:20.433Z,12.41
2022-12-31T21:32:48.751Z,12.43
2022-12-31T21:35:43.460Z,12.45
2022-12-31T21:38:06.603Z,12.45
2022-12-31T21:40:34.750Z,12.47
2022-12-31T21:43:02.610Z,12.50
2022-12-31T21:45:30.444Z,12.52
2022-12-31T21:48:18.839Z,12.54
2022-12-31T21:50:48.861Z,12.57
2022-12-31T21:53:23.692Z,12.60
2022-12-31T21:56:08.409Z,12.64
2022-12-31T21:58:39.664Z,12.65
2022-12-31T22:01:26.597Z,12.70
2022-12-31T22:03:54.684Z,12.75
2022-12-31T22:06:24.450Z,12.77
2022-12-31T22:08:55.089Z,12.80
2022-12-31T22:11:25.702Z,12.85
2022-12-31T22:13:55.317Z,12.89
2022-12-31T22:16:23.156Z,12.92
2022-12-31T22:18:51.058Z,12.93
2022-12-31T22:21:26.773Z,12.96
2022-12-31T22:23:58.728Z,12.97
2022-12-31T22:26:28.852Z,12.97
2022-12-31T22:28:59.783Z,12.98
2022-12-31T22:31:30.344Z,12.99
2022-12-31T22:33:59.098Z,13.01
2022-12-31T22:36:27.019Z,13.05
2022-12-31T22:38:58.573Z,13.09
2022-12-31T22:41:28.010Z,13.13
2022-12-31T22:44:05.838Z,13.16
2022-12-31T22:46:35.502Z,13.17
2022-12-31T22:49:04.903Z,13.18
2022-12-31T22:51:56.046Z,13.18
2022-12-31T22:54:21.789Z,13.17
2022-12-31T22:56:49.846Z,13.15
2022-12-31T22:59:17.652Z,13.12
2022-12-31T23:01:45.748Z,13.09
2022-12-31T23:04:13.809Z,13.04
2022-12-31T23:06:45.007Z,13.00
2022-12-31T23:09:30.888Z,12.96
2022-12-31T23:11:59.334Z,12.91
2022-12-31T23:14:43.267Z,12.87
2022-12-31T23:17:33.277Z,12.84
2022-12-31T23:20:17.663Z,12.80
2022-12-31T23:23:03.110Z,12.78
2022-12-31T23:25:33.293Z,12.76
2022-12-31T23:28:01.262Z,12.75
2022-12-31T23:30:29.451Z,12.76
2022-12-31T23:32:57.774Z,12.77
2022-12-31T23:35:25.689Z,12.77
2022-12-31T23:37:53.457Z,12.77
2022-12-31T23:40:22.144Z,12.77
2022-12-31T23:42:50.244Z,12.75
2022-12-31T23:45:18.020Z,12.72
2022-12-31T23:47:45.845Z,12.68
2022-12-31T23:50:13.771Z,12.66
2022-12-31T23:52:41.581Z,12.63
2022-12-31T23:55:09.454Z,12.61
2022-12-31T23:57:37.261Z,12.59
